Time;durP1;ratioP1;P1;durP2;ratioP2;P2;SDS_P1;SDS_P2;PMS_P1;PMS_P2;Temp;Humidity;BMP_temperature;BMP_pressure;BME280_temperature;BME280_humidity;BME280_pressure;Samples;Min_cycle;Max_cycle;Signal;HPM_P1;HPM_P2
2023/11/28 00:01:43;;;;;;;5.60;3.40;;;2.70;99.90;;;;;;5033202;28;20193;-84
2023/11/28 00:04:10;;;;;;;8.10;3.50;;;2.80;99.90;;;;;;5030654;28;20212;-85
2023/11/28 00:06:38;;;;;;;4.20;3.65;;;2.70;99.90;;;;;;5035832;28;20204;-85
2023/11/28 00:09:05;;;;;;;5.25;3.50;;;2.60;99.90;;;;;;5038772;28;20240;-84
2023/11/28 00:11:33;;;;;;;5.25;2.80;;;2.60;99.90;;;;;;5046972;28;20209;-85
2023/11/28 00:14:00;;;;;;;6.35;3.97;;;2.80;99.90;;;;;;5039164;28;20220;-85
2023/11/28 00:16:28;;;;;;;7.05;3.53;;;2.70;99.90;;;;;;5034908;28;20201;-85
2023/11/28 00:18:56;;;;;;;3.72;3.05;;;2.70;99.90;;;;;;5034069;28;20244;-86
2023/11/28 00:21:23;;;;;;;6.75;3.75;;;2.70;99.90;;;;;;5036143;28;20207;-83
2023/11/28 00:23:50;;;;;;;4.60;3.00;;;2.80;99.90;;;;;;5039169;28;20193;-85
2023/11/28 00:26:17;;;;;;;7.68;3.10;;;2.90;99.90;;;;;;5052316;28;20303;-85
2023/11/28 00:28:44;;;;;;;6.82;3.95;;;2.80;99.90;;;;;;5036072;28;20217;-85
2023/11/28 00:31:11;;;;;;;4.45;3.08;;;2.80;99.90;;;;;;5038003;28;20205;-85
2023/11/28 00:33:40;;;;;;;6.20;3.10;;;2.70;99.90;;;;;;5045651;28;20312;-84
2023/11/28 00:36:07;;;;;;;5.85;2.90;;;2.80;99.90;;;;;;5042354;28;20270;-84
2023/11/28 00:38:34;;;;;;;3.22;2.75;;;2.80;99.90;;;;;;5028940;28;20202;-86
2023/11/28 00:41:01;;;;;;;4.40;2.83;;;2.80;99.90;;;;;;5034346;28;20200;-83
2023/11/28 00:43:28;;;;;;;6.60;3.00;;;2.90;99.90;;;;;;5038844;28;20216;-85
2023/11/28 00:45:55;;;;;;;5.90;2.80;;;2.80;99.90;;;;;;5044048;28;20233;-85
2023/11/28 00:48:22;;;;;;;3.08;2.53;;;2.90;99.90;;;;;;5046463;28;20208;-86
2023/11/28 00:50:51;;;;;;;3.85;2.75;;;2.80;99.90;;;;;;5051709;28;20224;-85
2023/11/28 00:53:18;;;;;;;3.55;2.30;;;2.70;99.90;;;;;;5057528;28;20192;-84
2023/11/28 00:55:45;;;;;;;5.45;2.85;;;2.60;99.90;;;;;;5038911;28;20221;-85
2023/11/28 00:58:12;;;;;;;3.25;2.72;;;2.60;99.90;;;;;;5037609;28;20212;-86
2023/11/28 01:00:38;;;;;;;3.20;2.85;;;2.70;99.90;;;;;;5051012;28;20193;-87
2023/11/28 01:03:05;;;;;;;4.13;2.70;;;2.50;99.90;;;;;;5043478;28;20193;-86
2023/11/28 01:05:33;;;;;;;5.88;2.38;;;2.60;99.90;;;;;;5043055;28;20240;-87
2023/11/28 01:08:01;;;;;;;4.75;2.08;;;2.60;99.90;;;;;;5048591;28;20223;-87
2023/11/28 01:10:28;;;;;;;4.65;2.50;;;2.70;99.90;;;;;;5047928;28;20227;-85
2023/11/28 01:12:55;;;;;;;2.88;2.25;;;2.70;99.90;;;;;;5047174;28;20203;-88
2023/11/28 01:15:22;;;;;;;2.47;2.28;;;2.70;99.90;;;;;;5053826;28;20225;-87
2023/11/28 01:17:49;;;;;;;5.80;2.75;;;2.60;99.90;;;;;;5049425;28;20228;-88
2023/11/28 01:20:16;;;;;;;3.45;1.98;;;2.80;99.90;;;;;;5051776;28;20195;-89
2023/11/28 01:22:43;;;;;;;3.42;2.17;;;2.70;99.90;;;;;;5049745;28;20200;-88
2023/11/28 01:25:12;;;;;;;3.95;2.47;;;2.60;99.90;;;;;;5039204;28;20227;-85
2023/11/28 01:27:39;;;;;;;3.17;2.35;;;2.80;99.90;;;;;;5041110;28;20260;-89
2023/11/28 01:30:07;;;;;;;2.30;2.00;;;2.80;99.90;;;;;;5047959;28;20201;-86
2023/11/28 01:32:34;;;;;;;3.88;2.58;;;2.70;99.90;;;;;;5046783;28;20265;-86
2023/11/28 01:35:01;;;;;;;3.38;2.30;;;2.60;99.90;;;;;;5043442;28;20480;-86
2023/11/28 01:37:28;;;;;;;3.20;2.28;;;2.70;99.90;;;;;;5045649;28;20224;-86
2023/11/28 01:39:55;;;;;;;3.13;1.83;;;2.40;99.90;;;;;;5038931;28;20185;-88
2023/11/28 01:42:24;;;;;;;5.35;2.65;;;2.50;99.90;;;;;;5042006;28;20208;-88
2023/11/28 01:44:51;;;;;;;2.67;1.83;;;2.50;99.90;;;;;;5051325;28;20202;-90
2023/11/28 01:47:18;;;;;;;4.18;3.35;;;2.40;99.90;;;;;;5031858;28;20197;-84
2023/11/28 01:49:45;;;;;;;2.80;2.13;;;2.50;99.90;;;;;;5040166;28;20206;-85
2023/11/28 01:52:13;;;;;;;2.40;2.17;;;2.40;99.90;;;;;;5031560;28;20209;-85
2023/11/28 01:54:43;;;;;;;3.05;2.50;;;2.40;99.90;;;;;;5028333;28;20499;-83
2023/11/28 01:57:12;;;;;;;2.47;2.28;;;2.50;99.90;;;;;;5024602;28;20284;-83
2023/11/28 01:59:42;;;;;;;5.60;2.28;;;2.50;99.90;;;;;;5025257;28;20463;-84
2023/11/28 02:02:09;;;;;;;2.80;2.25;;;2.50;99.90;;;;;;5047611;28;20185;-90
2023/11/28 02:04:36;;;;;;;2.80;1.70;;;2.60;99.90;;;;;;5044992;28;20228;-85
2023/11/28 02:07:03;;;;;;;4.22;2.03;;;2.40;99.90;;;;;;5044915;28;20219;-86
2023/11/28 02:09:31;;;;;;;2.80;2.30;;;2.40;99.90;;;;;;5032668;28;20616;-86
2023/11/28 02:11:59;;;;;;;2.17;1.98;;;2.30;99.90;;;;;;5040167;28;20203;-85
2023/11/28 02:14:26;;;;;;;2.22;1.83;;;2.30;99.90;;;;;;5030294;28;20220;-85
2023/11/28 02:16:54;;;;;;;2.55;2.13;;;2.30;99.90;;;;;;5033603;28;20201;-84
2023/11/28 02:19:21;;;;;;;2.45;2.25;;;2.20;99.90;;;;;;5033607;28;20486;-85
2023/11/28 02:21:49;;;;;;;2.30;2.10;;;2.10;99.90;;;;;;5029003;28;20231;-87
2023/11/28 02:24:17;;;;;;;3.40;2.20;;;2.20;99.90;;;;;;5047655;28;20220;-88
2023/11/28 02:26:46;;;;;;;4.20;2.63;;;2.20;99.90;;;;;;5053795;28;20188;-89
2023/11/28 02:29:13;;;;;;;4.60;3.00;;;2.20;99.90;;;;;;5056422;28;20196;-89
2023/11/28 02:31:40;;;;;;;3.05;2.75;;;2.20;99.90;;;;;;5043003;28;20215;-87
2023/11/28 02:34:07;;;;;;;2.70;2.10;;;2.30;99.90;;;;;;5049333;28;20198;-87
2023/11/28 02:36:34;;;;;;;3.72;2.63;;;2.10;99.90;;;;;;5045987;28;20205;-87
2023/11/28 02:39:01;;;;;;;3.07;2.10;;;2.30;99.90;;;;;;5043717;28;20214;-88
2023/11/28 02:41:29;;;;;;;3.13;2.58;;;2.20;99.90;;;;;;5044198;28;20567;-86
2023/11/28 02:43:59;;;;;;;2.92;2.63;;;2.30;99.90;;;;;;5041582;28;20253;-89
2023/11/28 02:46:26;;;;;;;2.70;2.47;;;2.30;99.90;;;;;;5050946;28;20397;-88
2023/11/28 02:48:53;;;;;;;3.33;2.80;;;2.40;99.90;;;;;;5040662;28;20494;-86
2023/11/28 02:51:20;;;;;;;3.55;2.90;;;2.40;99.90;;;;;;5037231;28;20232;-86
2023/11/28 02:53:47;;;;;;;5.97;3.50;;;2.30;99.90;;;;;;5031271;28;20249;-85
2023/11/28 02:56:14;;;;;;;3.90;3.60;;;2.40;99.90;;;;;;5033040;28;20239;-85
2023/11/28 02:58:41;;;;;;;4.00;3.00;;;2.40;99.90;;;;;;5033342;28;20234;-84
2023/11/28 03:01:10;;;;;;;4.15;3.20;;;2.40;99.90;;;;;;5034347;28;20228;-87
2023/11/28 03:03:37;;;;;;;2.95;2.60;;;2.40;99.90;;;;;;5032413;28;20184;-86
2023/11/28 03:06:04;;;;;;;3.05;2.75;;;2.40;99.90;;;;;;5041994;28;20256;-84
2023/11/28 03:08:31;;;;;;;3.35;2.88;;;2.40;99.90;;;;;;5043490;28;20204;-89
2023/11/28 03:10:58;;;;;;;4.53;3.45;;;2.40;99.90;;;;;;5028306;28;20215;-85
2023/11/28 03:13:25;;;;;;;3.92;3.53;;;2.30;99.90;;;;;;5040820;28;20200;-84
2023/11/28 03:15:54;;;;;;;4.72;3.28;;;2.60;99.90;;;;;;5040836;28;20229;-83
2023/11/28 03:18:22;;;;;;;3.40;3.10;;;2.60;99.90;;;;;;5028867;28;20626;-85
2023/11/28 03:20:49;;;;;;;3.60;3.30;;;2.60;99.90;;;;;;5032100;28;20258;-86
2023/11/28 03:23:16;;;;;;;4.03;3.65;;;2.80;99.90;;;;;;5026742;28;20263;-84
2023/11/28 03:25:43;;;;;;;3.97;3.58;;;2.70;99.90;;;;;;5033210;28;20308;-84
2023/11/28 03:28:10;;;;;;;4.22;3.90;;;2.70;99.90;;;;;;5034940;28;20204;-83
2023/11/28 03:30:37;;;;;;;4.90;4.40;;;2.70;99.90;;;;;;5032981;28;20208;-86
2023/11/28 03:33:04;;;;;;;3.83;3.38;;;2.70;99.90;;;;;;5022989;28;20616;-83
2023/11/28 03:35:33;;;;;;;5.03;3.63;;;2.60;99.90;;;;;;5036458;28;20295;-84
2023/11/28 03:38:00;;;;;;;3.75;3.40;;;2.60;99.90;;;;;;5026593;28;20232;-84
2023/11/28 03:40:27;;;;;;;3.80;3.25;;;2.60;99.90;;;;;;5025569;28;20207;-84
2023/11/28 03:42:54;;;;;;;9.50;3.83;;;2.60;99.90;;;;;;5025039;28;20220;-85
2023/11/28 03:45:21;;;;;;;3.95;3.55;;;2.80;99.90;;;;;;5028411;28;20278;-85
2023/11/28 03:47:48;;;;;;;4.82;3.40;;;2.80;99.90;;;;;;5030002;28;20185;-87
2023/11/28 03:50:15;;;;;;;4.82;3.80;;;2.60;99.90;;;;;;5034226;28;20208;-86
2023/11/28 03:52:43;;;;;;;3.80;3.40;;;2.60;99.90;;;;;;5034042;28;20606;-85
2023/11/28 03:55:10;;;;;;;5.43;4.13;;;2.70;99.90;;;;;;5031063;28;20241;-86
2023/11/28 03:57:37;;;;;;;4.78;3.55;;;2.60;99.90;;;;;;5041418;28;20212;-87
2023/11/28 04:00:09;;;;;;;4.05;3.65;;;2.60;99.90;;;;;;5030886;28;20212;-85
2023/11/28 04:02:37;;;;;;;4.88;3.72;;;2.50;99.90;;;;;;5031185;28;20208;-84
2023/11/28 04:05:05;;;;;;;4.50;3.85;;;2.50;99.90;;;;;;5048252;28;20263;-88
2023/11/28 04:07:33;;;;;;;4.75;3.10;;;2.50;99.90;;;;;;5087007;23;20320;-86
2023/11/28 04:10:03;;;;;;;5.50;3.72;;;2.50;99.90;;;;;;5046594;28;20184;-86
2023/11/28 04:12:40;;;;;;;4.47;3.42;;;2.50;99.90;;;;;;5042259;28;20203;-84
2023/11/28 04:15:08;;;;;;;4.30;3.80;;;2.50;99.90;;;;;;5043860;28;20216;-88
2023/11/28 04:17:35;;;;;;;4.80;3.90;;;2.60;99.90;;;;;;5059086;28;20275;-86
2023/11/28 04:20:03;;;;;;;3.80;3.50;;;2.50;99.90;;;;;;5043391;28;20231;-84
2023/11/28 04:22:30;;;;;;;3.83;3.25;;;2.40;99.90;;;;;;5049159;28;20200;-86
2023/11/28 04:24:57;;;;;;;3.17;2.88;;;2.50;99.90;;;;;;5040321;28;20196;-86
2023/11/28 04:27:25;;;;;;;3.95;3.40;;;2.50;99.90;;;;;;5052217;23;20216;-69
2023/11/28 04:29:52;;;;;;;4.57;3.67;;;2.50;99.90;;;;;;5029430;28;20224;-70
2023/11/28 04:32:19;;;;;;;5.70;4.68;;;2.30;99.90;;;;;;5030692;28;20208;-70
2023/11/28 04:34:47;;;;;;;5.32;3.50;;;2.30;99.90;;;;;;5024493;28;20597;-73
2023/11/28 04:37:14;;;;;;;5.35;3.83;;;2.30;99.90;;;;;;5035228;28;20689;-69
2023/11/28 04:39:41;;;;;;;3.53;3.00;;;2.30;99.90;;;;;;5037183;28;20232;-71
2023/11/28 04:42:08;;;;;;;3.42;3.10;;;2.30;99.90;;;;;;5035069;28;20270;-72
2023/11/28 04:44:36;;;;;;;6.10;3.72;;;2.30;99.90;;;;;;5032814;28;20301;-72
2023/11/28 04:47:04;;;;;;;4.60;3.53;;;2.30;99.90;;;;;;5019186;28;20213;-71
2023/11/28 04:49:31;;;;;;;3.10;2.80;;;2.30;99.90;;;;;;5019434;28;20201;-74
2023/11/28 04:51:58;;;;;;;2.80;2.58;;;2.30;99.90;;;;;;5022837;28;20663;-72
2023/11/28 04:54:25;;;;;;;3.35;2.67;;;2.30;99.90;;;;;;5029588;28;20710;-69
2023/11/28 04:56:52;;;;;;;3.33;2.78;;;2.30;99.90;;;;;;5025278;28;20588;-73
2023/11/28 04:59:19;;;;;;;5.07;3.40;;;2.30;99.90;;;;;;5026597;28;20264;-74
2023/11/28 05:01:48;;;;;;;4.30;3.63;;;2.40;99.90;;;;;;5028953;28;20250;-71
2023/11/28 05:04:15;;;;;;;5.72;2.70;;;2.40;99.90;;;;;;5030560;28;20225;-72
2023/11/28 05:06:42;;;;;;;2.83;2.63;;;2.50;99.90;;;;;;5032019;28;20228;-71
2023/11/28 05:09:10;;;;;;;5.28;3.83;;;2.50;99.90;;;;;;5024969;28;20534;-75
2023/11/28 05:11:38;;;;;;;3.88;3.15;;;2.50;99.90;;;;;;5027252;28;20220;-74
2023/11/28 05:14:05;;;;;;;6.22;3.35;;;2.50;99.90;;;;;;5029222;28;20289;-72
2023/11/28 05:16:32;;;;;;;4.40;3.65;;;2.60;99.90;;;;;;5028287;28;20271;-72
2023/11/28 05:19:00;;;;;;;4.13;3.60;;;2.50;99.90;;;;;;5033170;28;20239;-70
2023/11/28 05:21:27;;;;;;;4.78;4.28;;;2.50;99.90;;;;;;5036595;28;20285;-73
2023/11/28 05:23:54;;;;;;;3.38;2.92;;;2.50;99.90;;;;;;5034250;28;20224;-73
2023/11/28 05:26:21;;;;;;;5.38;4.38;;;2.50;99.90;;;;;;5032468;28;20662;-68
2023/11/28 05:28:48;;;;;;;9.43;5.57;;;2.50;99.90;;;;;;5027238;28;20220;-72
2023/11/28 05:31:15;;;;;;;6.75;4.00;;;2.40;99.90;;;;;;5034599;28;20207;-71
2023/11/28 05:33:42;;;;;;;6.25;5.10;;;2.50;99.90;;;;;;5032984;28;20642;-72
2023/11/28 05:36:11;;;;;;;6.57;4.63;;;2.60;99.90;;;;;;5028851;28;20240;-73
2023/11/28 05:38:38;;;;;;;4.38;3.97;;;2.60;99.90;;;;;;5028565;28;20718;-73
2023/11/28 05:41:08;;;;;;;5.50;4.85;;;2.60;99.90;;;;;;5035145;28;20294;-69
2023/11/28 05:43:35;;;;;;;7.28;4.57;;;2.70;99.90;;;;;;5034887;28;20553;-75
2023/11/28 05:46:03;;;;;;;6.53;5.82;;;2.80;99.90;;;;;;5029949;28;20729;-72
2023/11/28 05:48:29;;;;;;;7.00;3.72;;;2.90;99.90;;;;;;5032634;28;20207;-73
2023/11/28 05:50:56;;;;;;;4.43;3.28;;;3.00;99.90;;;;;;5033099;28;20531;-71
2023/11/28 05:53:25;;;;;;;3.72;3.38;;;3.00;99.90;;;;;;5033043;28;20215;-73
2023/11/28 05:55:53;;;;;;;6.95;3.70;;;3.00;99.90;;;;;;5026508;28;20224;-74
2023/11/28 05:58:19;;;;;;;3.40;3.10;;;3.00;99.90;;;;;;5025351;28;20216;-74
2023/11/28 06:00:49;;;;;;;4.32;3.92;;;3.10;99.90;;;;;;5033374;28;20227;-70
2023/11/28 06:03:16;;;;;;;4.50;3.60;;;3.10;99.90;;;;;;5029618;28;20258;-70
2023/11/28 06:05:43;;;;;;;5.18;2.83;;;3.10;99.90;;;;;;5033375;28;20281;-70
2023/11/28 06:08:10;;;;;;;5.40;3.75;;;3.10;99.90;;;;;;5027753;28;20208;-71
2023/11/28 06:10:39;;;;;;;5.05;4.35;;;3.00;99.90;;;;;;5027415;28;20212;-70
2023/11/28 06:13:06;;;;;;;6.00;4.10;;;3.10;99.90;;;;;;5029817;28;20198;-72
2023/11/28 06:15:34;;;;;;;3.80;3.40;;;3.10;99.90;;;;;;5028659;28;20222;-74
2023/11/28 06:18:00;;;;;;;3.90;3.60;;;3.20;99.90;;;;;;5033777;28;20747;-74
2023/11/28 06:20:27;;;;;;;5.00;4.05;;;3.20;99.90;;;;;;5033212;28;20204;-73
2023/11/28 06:22:55;;;;;;;6.82;4.70;;;3.20;99.90;;;;;;5030358;28;20250;-72
2023/11/28 06:25:22;;;;;;;4.03;3.30;;;3.20;99.90;;;;;;5027007;28;20636;-75
2023/11/28 06:27:50;;;;;;;3.80;3.25;;;3.30;99.90;;;;;;5029577;28;20208;-74
2023/11/28 06:30:17;;;;;;;4.05;3.67;;;3.20;99.90;;;;;;5022706;28;20548;-73
2023/11/28 06:32:45;;;;;;;3.85;3.45;;;3.20;99.90;;;;;;5029165;28;20236;-73
2023/11/28 06:35:12;;;;;;;4.57;3.88;;;3.20;99.90;;;;;;5029276;28;20228;-71
2023/11/28 06:37:39;;;;;;;5.85;4.43;;;3.20;99.90;;;;;;5032876;28;20218;-74
2023/11/28 06:40:07;;;;;;;3.83;3.53;;;3.20;99.90;;;;;;5021657;28;20290;-74
2023/11/28 06:42:34;;;;;;;3.50;3.20;;;3.30;99.90;;;;;;5032833;28;20630;-74
2023/11/28 06:45:05;;;;;;;4.10;3.45;;;3.30;99.90;;;;;;5030677;28;20224;-73
2023/11/28 06:47:32;;;;;;;5.22;3.33;;;3.20;99.90;;;;;;5030517;28;20295;-72
2023/11/28 06:49:59;;;;;;;4.18;3.13;;;3.20;99.90;;;;;;5027541;28;20201;-74
2023/11/28 06:52:26;;;;;;;4.03;3.63;;;3.30;99.90;;;;;;5031455;28;20204;-75
2023/11/28 06:54:53;;;;;;;3.78;3.42;;;3.30;99.90;;;;;;5019523;28;20220;-72
2023/11/28 06:57:20;;;;;;;5.38;3.72;;;3.30;99.90;;;;;;5025411;28;20287;-71
2023/11/28 06:59:47;;;;;;;3.70;3.10;;;3.20;99.90;;;;;;5025412;28;20545;-75
2023/11/28 07:02:16;;;;;;;3.72;3.40;;;3.30;99.90;;;;;;5032168;28;20299;-72
2023/11/28 07:04:43;;;;;;;4.20;3.20;;;3.20;99.90;;;;;;5028841;28;20274;-74
2023/11/28 07:07:11;;;;;;;8.40;3.42;;;3.20;99.90;;;;;;5026862;28;20205;-73
2023/11/28 07:09:41;;;;;;;2.95;2.60;;;3.30;99.90;;;;;;5015746;28;20215;-74
2023/11/28 07:12:08;;;;;;;3.30;3.00;;;3.30;99.90;;;;;;5032169;28;20293;-74
2023/11/28 07:14:36;;;;;;;4.35;3.38;;;3.30;99.90;;;;;;5030184;28;20240;-76
2023/11/28 07:17:04;;;;;;;3.55;2.95;;;3.30;99.90;;;;;;5017385;28;20315;-72
2023/11/28 07:19:32;;;;;;;5.82;2.72;;;3.20;99.90;;;;;;5025769;28;20207;-75
2023/11/28 07:21:59;;;;;;;6.10;3.35;;;3.30;99.90;;;;;;5025475;28;20202;-72
2023/11/28 07:24:26;;;;;;;8.07;3.80;;;3.30;99.90;;;;;;5035174;28;20275;-71
2023/11/28 07:26:53;;;;;;;3.78;2.92;;;3.30;99.90;;;;;;5031597;28;20639;-74
2023/11/28 07:29:20;;;;;;;5.07;3.70;;;3.30;99.90;;;;;;5017187;28;20243;-74
2023/11/28 07:31:47;;;;;;;4.18;3.38;;;3.30;99.90;;;;;;5026667;28;20204;-72
2023/11/28 07:34:14;;;;;;;6.38;3.70;;;3.40;99.90;;;;;;5030634;28;20237;-72
2023/11/28 07:36:47;;;;;;;4.70;3.35;;;3.40;99.90;;;;;;5026986;28;20228;-75
2023/11/28 07:39:15;;;;;;;24.63;6.80;;;3.50;99.90;;;;;;5027759;28;20209;-76
2023/11/28 07:41:42;;;;;;;3.88;2.83;;;3.50;99.90;;;;;;5029606;28;20273;-79
2023/11/28 07:44:09;;;;;;;5.00;4.07;;;3.60;99.90;;;;;;5029792;28;20471;-79
2023/11/28 07:46:36;;;;;;;3.50;3.20;;;3.70;99.90;;;;;;5032269;28;20267;-72
2023/11/28 07:49:03;;;;;;;3.40;2.88;;;3.70;99.90;;;;;;5022204;28;20204;-72
2023/11/28 07:51:30;;;;;;;4.30;3.75;;;3.70;99.90;;;;;;5030954;28;20217;-74
2023/11/28 07:53:59;;;;;;;4.35;3.92;;;3.80;99.90;;;;;;5035724;28;20224;-71
2023/11/28 07:56:26;;;;;;;3.88;3.47;;;3.70;99.90;;;;;;5028311;28;20228;-73
2023/11/28 07:58:53;;;;;;;3.88;3.30;;;3.70;99.90;;;;;;5022891;28;20255;-75
2023/11/28 08:01:20;;;;;;;5.30;3.60;;;3.70;99.90;;;;;;5037136;28;20230;-78
2023/11/28 08:03:47;;;;;;;5.40;3.65;;;3.60;99.90;;;;;;5036301;28;20204;-73
2023/11/28 08:06:17;;;;;;;4.75;3.40;;;3.60;99.90;;;;;;5042889;28;20197;-72
2023/11/28 08:08:44;;;;;;;2.92;2.65;;;3.60;99.90;;;;;;5037634;28;20204;-74
2023/11/28 08:11:14;;;;;;;4.60;3.67;;;3.70;99.90;;;;;;5034537;28;20467;-74
2023/11/28 08:13:41;;;;;;;5.30;3.83;;;3.70;99.90;;;;;;5026492;28;20442;-75
2023/11/28 08:16:09;;;;;;;6.82;3.78;;;3.70;99.90;;;;;;5029944;28;20686;-75
2023/11/28 08:18:36;;;;;;;4.35;3.00;;;3.80;99.90;;;;;;5025522;28;20209;-76
2023/11/28 08:21:06;;;;;;;5.10;3.38;;;3.80;99.90;;;;;;5034486;28;20209;-76
2023/11/28 08:23:33;;;;;;;4.57;3.22;;;3.80;99.90;;;;;;5033220;28;20632;-77
2023/11/28 08:26:00;;;;;;;8.10;5.10;;;3.90;99.90;;;;;;5036548;28;20220;-75
2023/11/28 08:28:29;;;;;;;7.20;3.90;;;3.90;99.90;;;;;;5033657;28;20455;-77
2023/11/28 08:30:56;;;;;;;7.90;3.95;;;3.90;99.90;;;;;;5028485;28;20209;-77
2023/11/28 08:33:23;;;;;;;4.78;3.35;;;3.90;99.90;;;;;;5033199;28;20231;-76
2023/11/28 08:35:50;;;;;;;8.70;3.58;;;3.70;99.90;;;;;;5037639;28;20219;-76
2023/11/28 08:38:17;;;;;;;4.25;3.78;;;3.80;99.90;;;;;;5030719;28;20212;-76
2023/11/28 08:40:44;;;;;;;4.40;3.00;;;3.60;99.90;;;;;;5036166;28;20259;-76
2023/11/28 08:43:11;;;;;;;5.60;2.60;;;3.70;99.90;;;;;;5036386;28;20212;-78
2023/11/28 08:45:39;;;;;;;2.88;2.63;;;3.70;99.90;;;;;;5029931;28;20780;-79
2023/11/28 08:48:07;;;;;;;3.88;3.38;;;3.70;99.90;;;;;;5024560;28;20201;-78
2023/11/28 08:50:33;;;;;;;3.72;2.42;;;3.80;99.90;;;;;;5030217;28;20201;-75
2023/11/28 08:53:03;;;;;;;3.53;3.22;;;3.80;99.90;;;;;;5038164;28;20209;-76
2023/11/28 08:55:30;;;;;;;3.95;2.42;;;3.90;99.90;;;;;;5034604;28;20236;-78
2023/11/28 08:57:57;;;;;;;4.22;3.15;;;3.90;99.90;;;;;;5035573;28;20592;-77
2023/11/28 09:00:24;;;;;;;3.85;3.33;;;4.00;99.90;;;;;;5028184;28;20247;-78
2023/11/28 09:02:52;;;;;;;3.38;3.05;;;4.00;99.90;;;;;;5025531;28;20201;-75
2023/11/28 09:05:20;;;;;;;3.33;3.03;;;4.10;99.90;;;;;;5038004;28;20235;-78
2023/11/28 09:07:49;;;;;;;3.15;2.70;;;4.30;99.90;;;;;;5035820;28;20443;-77
2023/11/28 09:10:16;;;;;;;2.80;2.55;;;4.50;99.90;;;;;;5031446;28;20208;-74
2023/11/28 09:12:47;;;;;;;2.97;2.67;;;4.70;99.90;;;;;;5034382;28;20201;-74
2023/11/28 09:15:14;;;;;;;4.63;2.90;;;4.90;99.90;;;;;;5033233;28;20580;-74
2023/11/28 09:17:42;;;;;;;4.80;2.92;;;4.80;99.90;;;;;;5036552;28;20266;-73
2023/11/28 09:20:11;;;;;;;4.70;3.05;;;4.80;99.90;;;;;;5032303;28;20201;-76
2023/11/28 09:22:38;;;;;;;3.08;2.78;;;4.80;99.90;;;;;;5032386;28;20212;-76
2023/11/28 09:25:09;;;;;;;7.57;3.65;;;4.80;99.90;;;;;;5036557;28;20229;-76
2023/11/28 09:27:36;;;;;;;4.15;3.20;;;4.80;99.90;;;;;;5035160;28;20239;-75
2023/11/28 09:30:03;;;;;;;5.35;4.10;;;4.60;99.90;;;;;;5029677;28;20215;-76
2023/11/28 09:32:31;;;;;;;4.55;3.85;;;4.60;99.90;;;;;;5029651;28;20208;-75
2023/11/28 09:34:58;;;;;;;6.53;3.70;;;4.50;99.90;;;;;;5022546;28;20229;-77
2023/11/28 09:37:27;;;;;;;7.03;3.20;;;4.50;99.90;;;;;;5030171;28;20259;-73
2023/11/28 09:39:55;;;;;;;3.25;2.95;;;4.70;99.90;;;;;;5036896;28;20254;-77
2023/11/28 09:42:23;;;;;;;4.40;4.00;;;4.80;99.90;;;;;;5035716;28;20196;-77
2023/11/28 09:44:51;;;;;;;3.65;3.10;;;4.80;99.90;;;;;;5035164;28;20523;-77
2023/11/28 09:47:21;;;;;;;3.40;3.10;;;5.00;99.90;;;;;;5032342;28;20201;-75
2023/11/28 09:49:52;;;;;;;2.65;2.42;;;5.10;99.90;;;;;;5031217;28;20642;-75
2023/11/28 09:52:21;;;;;;;4.22;3.38;;;5.20;99.90;;;;;;5033719;28;20197;-78
2023/11/28 09:54:52;;;;;;;28.48;5.55;;;5.30;99.90;;;;;;5034547;28;20225;-76
2023/11/28 09:57:21;;;;;;;8.60;4.32;;;5.20;99.90;;;;;;5031623;28;20220;-76
2023/11/28 09:59:50;;;;;;;3.28;2.97;;;5.00;99.90;;;;;;5027899;28;20808;-77
2023/11/28 10:02:17;;;;;;;5.50;3.35;;;4.90;99.90;;;;;;5029983;28;20205;-74
2023/11/28 10:04:45;;;;;;;3.55;3.10;;;4.90;99.90;;;;;;5032155;28;20267;-75
2023/11/28 10:07:14;;;;;;;4.45;2.92;;;4.90;99.90;;;;;;5062370;22;20231;-82
2023/11/28 10:09:47;;;;;;;3.08;2.80;;;4.70;99.90;;;;;;5066547;28;20272;-84
2023/11/28 10:12:17;;;;;;;7.38;3.33;;;4.60;99.90;;;;;;5066492;28;20211;-83
2023/11/28 10:14:46;;;;;;;16.55;6.22;;;4.60;99.90;;;;;;5069159;28;20625;-83
2023/11/28 10:17:19;;;;;;;10.32;3.40;;;4.40;99.90;;;;;;5063636;28;20224;-83
2023/11/28 10:19:47;;;;;;;5.88;3.50;;;4.20;99.90;;;;;;5059625;28;20327;-83
2023/11/28 10:22:14;;;;;;;2.90;2.60;;;4.10;99.90;;;;;;5073112;28;20296;-82
2023/11/28 10:24:41;;;;;;;3.75;2.70;;;4.10;99.90;;;;;;5060812;28;20196;-82
2023/11/28 10:27:11;;;;;;;3.65;2.60;;;4.10;99.90;;;;;;5059119;28;20223;-83
2023/11/28 10:29:39;;;;;;;3.97;3.25;;;4.20;99.90;;;;;;5051151;28;20469;-83
2023/11/28 10:32:07;;;;;;;3.50;2.90;;;4.50;99.90;;;;;;5067328;28;20201;-82
2023/11/28 10:34:36;;;;;;;8.10;3.28;;;4.70;99.90;;;;;;5060766;28;20196;-82
2023/11/28 10:37:03;;;;;;;3.10;2.80;;;4.80;99.90;;;;;;5066824;28;20235;-83
2023/11/28 10:39:30;;;;;;;5.32;2.95;;;4.90;99.90;;;;;;5058756;28;20201;-82
2023/11/28 10:41:57;;;;;;;7.15;3.97;;;4.80;99.90;;;;;;5061155;28;20662;-82
2023/11/28 10:44:25;;;;;;;3.67;3.35;;;4.80;99.90;;;;;;5061344;28;20226;-82
2023/11/28 10:46:59;;;;;;;3.30;3.00;;;5.00;99.90;;;;;;5058845;28;20235;-81
2023/11/28 10:49:26;;;;;;;5.57;5.03;;;4.80;99.90;;;;;;5069697;28;20191;-85
2023/11/28 10:51:56;;;;;;;8.80;5.60;;;4.60;99.90;;;;;;5061280;28;20193;-83
2023/11/28 10:54:28;;;;;;;6.57;4.50;;;4.30;99.90;;;;;;5057747;28;20778;-85
2023/11/28 10:57:03;;;;;;;6.05;4.10;;;4.20;99.90;;;;;;5059117;28;20559;-84
2023/11/28 10:59:35;;;;;;;4.93;4.13;;;4.10;99.90;;;;;;5070279;28;20218;-84
2023/11/28 11:02:07;;;;;;;3.50;3.20;;;4.10;99.90;;;;;;5068356;28;20208;-85
2023/11/28 11:04:35;;;;;;;3.25;2.95;;;4.00;99.90;;;;;;5068953;28;20199;-83
2023/11/28 11:07:02;;;;;;;4.38;3.58;;;4.10;99.90;;;;;;5051515;28;20231;-85
2023/11/28 11:09:31;;;;;;;4.28;3.53;;;4.20;99.90;;;;;;5053284;28;20666;-82
2023/11/28 11:11:59;;;;;;;3.10;2.80;;;4.20;99.90;;;;;;5072581;28;20208;-84
2023/11/28 11:14:36;;;;;;;5.65;3.75;;;4.20;99.90;;;;;;5052839;28;20196;-83
2023/11/28 11:17:16;;;;;;;5.85;4.45;;;4.30;99.90;;;;;;5062597;28;20231;-83
2023/11/28 11:19:55;;;;;;;4.43;4.03;;;4.30;99.90;;;;;;5063184;28;20195;-86
2023/11/28 11:22:25;;;;;;;4.15;3.72;;;4.20;99.90;;;;;;5063865;28;20570;-84
2023/11/28 11:24:53;;;;;;;5.60;3.78;;;4.20;99.90;;;;;;5066818;28;20274;-84
2023/11/28 11:27:21;;;;;;;7.03;3.25;;;4.20;99.90;;;;;;5065376;28;20231;-84
2023/11/28 11:29:49;;;;;;;5.32;3.33;;;4.00;99.90;;;;;;5057747;28;20230;-85
2023/11/28 11:32:23;;;;;;;11.50;5.38;;;4.00;99.90;;;;;;5055506;28;20771;-84
2023/11/28 11:34:51;;;;;;;5.90;3.80;;;3.90;99.90;;;;;;5063769;28;20190;-82
2023/11/28 11:37:19;;;;;;;4.05;3.65;;;4.00;99.90;;;;;;5069981;28;20216;-84
2023/11/28 11:39:47;;;;;;;6.72;4.15;;;3.70;99.90;;;;;;5065570;28;20222;-86
2023/11/28 11:42:17;;;;;;;5.85;4.25;;;3.70;99.90;;;;;;5058809;28;20234;-84
2023/11/28 11:44:48;;;;;;;5.15;3.92;;;3.60;99.90;;;;;;5066720;28;20201;-84
2023/11/28 11:47:17;;;;;;;5.97;3.40;;;3.60;99.90;;;;;;5051873;28;20788;-84
2023/11/28 11:49:46;;;;;;;12.15;4.28;;;3.60;99.90;;;;;;5074110;28;20222;-83
2023/11/28 11:52:14;;;;;;;5.72;4.00;;;3.70;99.90;;;;;;5056764;28;20192;-83
2023/11/28 11:54:43;;;;;;;9.93;5.25;;;3.60;99.90;;;;;;5062938;28;20252;-83
2023/11/28 11:57:10;;;;;;;6.38;3.97;;;3.60;99.90;;;;;;5054824;28;20542;-84
2023/11/28 11:59:38;;;;;;;4.03;3.58;;;3.60;99.90;;;;;;5062999;28;20239;-85
2023/11/28 12:02:05;;;;;;;9.57;5.03;;;3.60;99.90;;;;;;5060917;28;20581;-85
2023/11/28 12:04:33;;;;;;;13.77;4.45;;;3.60;99.90;;;;;;5058944;28;20226;-84
2023/11/28 12:07:03;;;;;;;8.85;4.60;;;3.60;99.90;;;;;;5066717;28;20239;-83
2023/11/28 12:09:31;;;;;;;5.78;4.68;;;3.60;99.90;;;;;;5067421;28;20256;-84
2023/11/28 12:11:58;;;;;;;4.95;4.32;;;3.60;99.90;;;;;;5058751;28;20204;-86
2023/11/28 12:14:26;;;;;;;5.55;4.20;;;3.50;99.90;;;;;;5056658;28;20560;-85
2023/11/28 12:16:55;;;;;;;6.00;4.30;;;3.50;99.90;;;;;;5062204;28;20223;-86
2023/11/28 12:19:24;;;;;;;5.50;4.00;;;3.50;99.90;;;;;;5054669;28;20231;-86
2023/11/28 12:21:55;;;;;;;10.00;3.63;;;3.50;99.90;;;;;;5064734;28;20203;-85
2023/11/28 12:24:26;;;;;;;6.45;4.78;;;3.50;99.90;;;;;;5072659;28;20186;-86
2023/11/28 12:26:53;;;;;;;6.68;4.00;;;3.50;99.90;;;;;;5070039;28;20204;-84
2023/11/28 12:29:21;;;;;;;12.13;5.20;;;3.40;99.90;;;;;;5062505;28;20636;-86
2023/11/28 12:31:48;;;;;;;6.80;4.38;;;3.40;99.90;;;;;;5064528;28;20211;-85
2023/11/28 12:34:15;;;;;;;4.97;4.20;;;3.20;99.90;;;;;;5060160;28;20227;-85
2023/11/28 12:36:48;;;;;;;7.60;4.63;;;3.10;99.90;;;;;;5062244;28;20258;-86
2023/11/28 12:39:19;;;;;;;7.72;5.10;;;3.00;99.90;;;;;;5065663;28;20305;-84
2023/11/28 12:41:50;;;;;;;6.50;4.85;;;3.00;99.90;;;;;;5067443;28;20681;-85
2023/11/28 12:44:22;;;;;;;12.75;7.60;;;2.80;99.90;;;;;;5069240;28;20196;-84
2023/11/28 12:46:54;;;;;;;7.50;4.85;;;3.00;99.90;;;;;;5070696;28;20211;-84
2023/11/28 12:49:22;;;;;;;11.70;9.35;;;2.90;99.90;;;;;;5064177;28;20196;-85
2023/11/28 12:51:50;;;;;;;13.60;10.65;;;2.90;99.90;;;;;;5071643;28;20208;-86
2023/11/28 12:54:18;;;;;;;8.25;5.85;;;2.90;99.90;;;;;;5067265;28;20192;-85
2023/11/28 12:56:52;;;;;;;18.45;5.72;;;2.90;99.90;;;;;;5053812;28;20228;-84
2023/11/28 12:59:23;;;;;;;9.00;5.78;;;2.80;99.90;;;;;;5063770;28;20266;-85
2023/11/28 13:01:51;;;;;;;7.35;5.20;;;3.00;99.90;;;;;;5067804;28;20199;-84